createdAt,value
2022-11-30T00:01:58.398Z,69.00
2022-11-30T00:04:24.974Z,64.10
2022-11-30T00:06:56.854Z,72.47
2022-11-30T00:09:23.882Z,61.60
2022-11-30T00:11:50.342Z,68.27
2022-11-30T00:14:16.806Z,70.53
2022-11-30T00:16:43.325Z,68.10
2022-11-30T00:19:09.846Z,65.60
2022-11-30T00:21:36.316Z,62.77
2022-11-30T00:24:02.817Z,72.00
2022-11-30T00:26:29.445Z,73.70
2022-11-30T00:28:55.908Z,70.67
2022-11-30T00:31:22.480Z,76.37
2022-11-30T00:33:49.005Z,73.20
2022-11-30T00:36:16.554Z,74.60
2022-11-30T00:38:43.259Z,76.07
2022-11-30T00:41:09.804Z,69.77
2022-11-30T00:43:36.227Z,77.13
2022-11-30T00:46:02.721Z,65.27
2022-11-30T00:48:29.198Z,69.97
2022-11-30T00:50:55.785Z,66.83
2022-11-30T00:53:22.331Z,69.03
2022-11-30T00:55:48.811Z,77.97
2022-11-30T00:58:15.432Z,75.47
2022-11-30T01:00:41.982Z,59.37
2022-11-30T01:03:08.497Z,64.97
2022-11-30T01:05:35.089Z,63.83
2022-11-30T01:08:02.075Z,67.63
2022-11-30T01:10:28.664Z,66.77
2022-11-30T01:12:55.144Z,71.63
2022-11-30T01:15:21.658Z,70.07
2022-11-30T01:17:48.168Z,73.23
2022-11-30T01:20:14.688Z,63.97
2022-11-30T01:22:41.202Z,73.13
2022-11-30T01:25:07.863Z,83.93
2022-11-30T01:27:34.538Z,84.07
2022-11-30T01:30:01.274Z,72.50
2022-11-30T01:32:27.829Z,74.07
2022-11-30T01:34:54.417Z,73.77
2022-11-30T01:37:20.895Z,75.90
2022-11-30T01:39:47.375Z,75.70
2022-11-30T01:42:17.623Z,83.27
2022-11-30T01:44:56.902Z,79.57
2022-11-30T01:47:28.233Z,73.43
2022-11-30T01:50:05.838Z,75.40
2022-11-30T01:52:39.783Z,74.13
2022-11-30T01:55:14.997Z,81.73
2022-11-30T01:57:42.685Z,69.33
2022-11-30T02:00:10.066Z,77.90
2022-11-30T02:02:51.725Z,72.90
2022-11-30T02:05:18.273Z,85.47
2022-11-30T02:07:45.028Z,75.40
2022-11-30T02:10:16.057Z,70.53
2022-11-30T02:12:42.610Z,69.73
2022-11-30T02:15:10.104Z,71.17
2022-11-30T02:17:42.463Z,63.10
2022-11-30T02:20:08.906Z,68.13
2022-11-30T02:22:35.507Z,68.30
2022-11-30T02:25:04.981Z,59.07
2022-11-30T02:27:38.882Z,64.50
2022-11-30T02:30:05.869Z,75.97
2022-11-30T02:32:33.783Z,66.40
2022-11-30T02:35:00.776Z,73.17
2022-11-30T02:37:27.324Z,84.13
2022-11-30T02:39:53.746Z,68.53
2022-11-30T02:42:20.456Z,63.73
2022-11-30T02:44:50.503Z,80.97
2022-11-30T02:47:35.882Z,76.83
2022-11-30T02:50:04.520Z,71.33
2022-11-30T02:52:31.048Z,71.47
2022-11-30T02:55:01.315Z,69.17
2022-11-30T02:57:27.888Z,77.03
2022-11-30T02:59:54.401Z,68.27
2022-11-30T03:02:20.906Z,77.03
2022-11-30T03:04:47.731Z,73.83
2022-11-30T03:07:14.428Z,77.90
2022-11-30T03:09:40.903Z,85.03
2022-11-30T03:12:07.399Z,81.90
2022-11-30T03:14:33.859Z,78.23
2022-11-30T03:17:00.287Z,70.17
2022-11-30T03:19:26.788Z,76.90
2022-11-30T03:21:53.313Z,83.60
2022-11-30T03:24:19.796Z,74.23
2022-11-30T03:26:46.276Z,81.07
2022-11-30T03:29:12.757Z,80.13
2022-11-30T03:31:39.187Z,76.57
2022-11-30T03:34:05.640Z,78.00
2022-11-30T03:36:32.132Z,75.60
2022-11-30T03:38:58.681Z,76.17
2022-11-30T03:41:25.101Z,80.03
2022-11-30T03:43:51.538Z,82.20
2022-11-30T03:46:18.000Z,74.23
2022-11-30T03:48:44.568Z,79.83
2022-11-30T03:51:11.203Z,75.77
2022-11-30T03:53:37.685Z,82.07
2022-11-30T03:56:04.983Z,77.07
2022-11-30T03:58:31.487Z,79.83
2022-11-30T04:01:01.899Z,65.77
2022-11-30T04:03:28.434Z,71.47
2022-11-30T04:05:54.875Z,76.00
2022-11-30T04:08:21.429Z,74.17
2022-11-30T04:10:48.214Z,73.77
2022-11-30T04:13:14.619Z,74.60
2022-11-30T04:15:41.280Z,70.87
2022-11-30T04:18:07.753Z,75.13
2022-11-30T04:20:40.065Z,76.80
2022-11-30T04:23:06.932Z,70.47
2022-11-30T04:25:33.517Z,73.90
2022-11-30T04:28:00.010Z,76.23
2022-11-30T04:30:26.478Z,71.43
2022-11-30T04:32:52.907Z,74.47
2022-11-30T04:35:19.355Z,69.63
2022-11-30T04:37:45.840Z,72.40
2022-11-30T04:40:12.474Z,70.80
2022-11-30T04:42:38.927Z,65.90
2022-11-30T04:45:05.543Z,71.13
2022-11-30T04:47:31.965Z,75.80
2022-11-30T04:49:58.466Z,76.43
2022-11-30T04:52:24.955Z,81.03
2022-11-30T04:54:52.019Z,70.50
2022-11-30T04:57:18.510Z,76.47
2022-11-30T04:59:44.974Z,68.80
2022-11-30T05:02:11.456Z,63.13
2022-11-30T05:04:38.009Z,70.33
2022-11-30T05:07:04.618Z,63.43
2022-11-30T05:09:31.051Z,69.60
2022-11-30T05:11:57.518Z,73.57
2022-11-30T05:14:23.966Z,71.57
2022-11-30T05:16:50.424Z,69.83
2022-11-30T05:19:16.939Z,70.27
2022-11-30T05:21:45.738Z,63.20
2022-11-30T05:24:12.573Z,71.13
2022-11-30T05:26:39.070Z,67.10
2022-11-30T05:29:05.566Z,66.97
2022-11-30T05:31:32.272Z,66.17
2022-11-30T05:33:59.342Z,71.40
2022-11-30T05:36:25.878Z,63.70
2022-11-30T05:38:52.319Z,77.20
2022-11-30T05:41:18.805Z,65.00
2022-11-30T05:43:45.238Z,74.10
2022-11-30T05:46:11.706Z,67.27
2022-11-30T05:48:38.159Z,64.97
2022-11-30T05:51:08.019Z,63.83
2022-11-30T05:53:34.579Z,62.03
2022-11-30T05:56:08.000Z,60.90
2022-11-30T05:58:34.576Z,60.53
2022-11-30T06:01:01.023Z,59.60
2022-11-30T06:03:30.601Z,65.87
2022-11-30T06:05:57.152Z,63.87
2022-11-30T06:08:23.751Z,69.13
2022-11-30T06:10:50.209Z,69.43
2022-11-30T06:13:16.717Z,64.67
2022-11-30T06:15:43.466Z,69.90
2022-11-30T06:18:11.252Z,65.47
2022-11-30T06:20:37.814Z,62.40
2022-11-30T06:23:04.337Z,56.97
2022-11-30T06:25:30.883Z,65.10
2022-11-30T06:27:57.607Z,70.57
2022-11-30T06:30:24.212Z,69.13
2022-11-30T06:32:51.368Z,70.53
2022-11-30T06:35:18.278Z,72.40
2022-11-30T06:37:44.766Z,68.17
2022-11-30T06:40:11.743Z,67.40
2022-11-30T06:42:38.288Z,65.07
2022-11-30T06:45:05.569Z,69.33
2022-11-30T06:47:32.054Z,59.37
2022-11-30T06:49:58.532Z,67.43
2022-11-30T06:52:25.023Z,64.43
2022-11-30T06:54:51.676Z,69.60
2022-11-30T06:57:18.414Z,63.30
2022-11-30T06:59:45.054Z,60.23
2022-11-30T07:02:16.172Z,66.13
2022-11-30T07:04:44.776Z,71.67
2022-11-30T07:07:11.651Z,66.90
2022-11-30T07:09:38.340Z,65.00
2022-11-30T07:12:05.007Z,70.83
2022-11-30T07:14:31.537Z,66.53
2022-11-30T07:16:58.170Z,65.93
2022-11-30T07:19:24.763Z,69.70
2022-11-30T07:21:51.351Z,69.67
2022-11-30T07:24:36.678Z,63.43
2022-11-30T07:27:03.362Z,67.50
2022-11-30T07:29:30.001Z,68.03
2022-11-30T07:31:56.621Z,72.23
2022-11-30T07:34:23.224Z,63.37
2022-11-30T07:36:49.872Z,66.70
2022-11-30T07:39:16.439Z,68.37
2022-11-30T07:41:43.054Z,69.17
2022-11-30T07:44:09.691Z,67.67
2022-11-30T07:46:36.379Z,74.53
2022-11-30T07:49:07.118Z,73.70
2022-11-30T07:51:33.882Z,80.70
2022-11-30T07:54:00.527Z,66.33
2022-11-30T07:56:27.223Z,65.60
2022-11-30T07:58:54.926Z,66.23
2022-11-30T08:01:22.441Z,75.37
2022-11-30T08:03:49.441Z,69.30
2022-11-30T08:06:23.005Z,75.50
2022-11-30T08:08:50.204Z,67.33
2022-11-30T08:11:17.371Z,72.37
2022-11-30T08:13:43.920Z,67.43
2022-11-30T08:16:11.624Z,65.47
2022-11-30T08:18:38.338Z,71.37
2022-11-30T08:21:05.591Z,65.07
2022-11-30T08:23:32.927Z,73.63
2022-11-30T08:26:10.240Z,63.43
2022-11-30T08:28:37.086Z,65.00
2022-11-30T08:31:04.814Z,68.90
2022-11-30T08:33:31.617Z,70.50
2022-11-30T08:36:07.267Z,70.73
2022-11-30T08:38:33.946Z,72.57
2022-11-30T08:41:00.765Z,65.80
2022-11-30T08:43:27.798Z,65.33
2022-11-30T08:45:57.144Z,76.40
2022-11-30T08:48:24.152Z,67.93
2022-11-30T08:50:50.709Z,68.03
2022-11-30T08:53:17.206Z,69.53
2022-11-30T08:55:43.796Z,73.27
2022-11-30T08:58:10.272Z,66.20
2022-11-30T09:00:36.739Z,69.93
2022-11-30T09:03:05.743Z,66.33
2022-11-30T09:05:32.328Z,69.40
2022-11-30T09:07:58.867Z,64.50
2022-11-30T09:10:25.468Z,58.20
2022-11-30T09:12:51.995Z,62.43
2022-11-30T09:15:18.439Z,66.00
2022-11-30T09:17:44.956Z,67.13
2022-11-30T09:20:11.714Z,63.67
2022-11-30T09:22:38.189Z,60.53
2022-11-30T09:25:05.173Z,61.30
2022-11-30T09:27:32.496Z,61.67
2022-11-30T09:29:59.015Z,63.30
2022-11-30T09:32:25.627Z,54.37
2022-11-30T09:34:52.567Z,53.63
2022-11-30T09:37:19.243Z,58.23
2022-11-30T09:39:45.721Z,51.37
2022-11-30T09:42:21.498Z,54.13
2022-11-30T09:44:51.163Z,62.87
2022-11-30T09:47:27.565Z,55.87
2022-11-30T09:49:57.214Z,51.10
2022-11-30T09:52:26.531Z,64.30
2022-11-30T09:54:53.177Z,59.73
2022-11-30T09:57:26.038Z,57.90
2022-11-30T09:59:56.861Z,60.67
2022-11-30T10:02:25.317Z,59.73
2022-11-30T10:04:51.943Z,60.73
2022-11-30T10:07:30.692Z,51.93
2022-11-30T10:10:30.795Z,60.80
2022-11-30T10:13:13.066Z,51.17
2022-11-30T10:15:58.144Z,50.57
2022-11-30T10:18:28.663Z,54.37
2022-11-30T10:20:58.373Z,54.87
2022-11-30T10:23:55.174Z,54.77
2022-11-30T10:26:27.890Z,48.17
2022-11-30T10:28:54.890Z,51.77
2022-11-30T10:31:27.447Z,49.53
2022-11-30T10:33:54.467Z,57.00
2022-11-30T10:36:20.955Z,50.23
2022-11-30T10:38:48.501Z,50.97
2022-11-30T10:41:16.598Z,51.37
2022-11-30T10:43:44.926Z,48.60
2022-11-30T10:46:26.911Z,48.97
2022-11-30T10:48:58.361Z,53.57
2022-11-30T10:51:25.102Z,46.00
2022-11-30T10:53:51.848Z,52.97
2022-11-30T10:56:18.331Z,51.47
2022-11-30T10:58:44.763Z,48.03
2022-11-30T11:01:11.969Z,49.03
2022-11-30T11:03:38.652Z,48.43
2022-11-30T11:06:13.360Z,48.00
2022-11-30T11:08:40.578Z,41.93
2022-11-30T11:11:25.679Z,46.33
2022-11-30T11:13:52.198Z,44.40
2022-11-30T11:16:18.682Z,42.70
2022-11-30T11:18:52.120Z,47.67
2022-11-30T11:21:19.103Z,42.07
2022-11-30T11:23:45.825Z,45.17
2022-11-30T11:26:25.521Z,38.47
2022-11-30T11:28:52.655Z,41.60
2022-11-30T11:31:28.482Z,35.07
2022-11-30T11:33:55.056Z,35.87
2022-11-30T11:36:25.652Z,37.60
2022-11-30T11:38:52.174Z,37.47
2022-11-30T11:41:20.485Z,39.83
2022-11-30T11:44:13.152Z,39.70
2022-11-30T11:46:58.224Z,38.93
2022-11-30T11:49:26.434Z,42.67
2022-11-30T11:52:06.072Z,38.63
2022-11-30T11:54:36.954Z,38.00
2022-11-30T11:57:03.501Z,37.67
2022-11-30T11:59:44.330Z,39.00
2022-11-30T12:02:31.075Z,37.97
2022-11-30T12:05:01.459Z,38.50
2022-11-30T12:07:46.802Z,42.50
2022-11-30T12:10:49.914Z,38.37
2022-11-30T12:13:09.338Z,33.13
2022-11-30T12:15:59.078Z,37.30
2022-11-30T12:18:28.904Z,40.90
2022-11-30T12:20:59.596Z,35.67
2022-11-30T12:23:38.367Z,37.00
2022-11-30T12:26:34.359Z,38.87
2022-11-30T12:29:19.703Z,36.43
2022-11-30T12:31:52.423Z,34.30
2022-11-30T12:34:28.069Z,34.50
2022-11-30T12:36:54.543Z,31.47
2022-11-30T12:39:25.026Z,36.07
2022-11-30T12:41:52.525Z,39.00
2022-11-30T12:44:29.005Z,37.27
2022-11-30T12:47:08.822Z,44.30
2022-11-30T12:49:41.388Z,41.47
2022-11-30T12:52:26.620Z,38.67
2022-11-30T12:54:59.178Z,41.83
2022-11-30T12:57:36.254Z,40.93
2022-11-30T13:00:11.983Z,42.40
2022-11-30T13:02:47.632Z,43.67
2022-11-30T13:05:15.648Z,42.00
2022-11-30T13:07:46.543Z,40.17
2022-11-30T13:10:24.589Z,41.13
2022-11-30T13:12:51.408Z,37.77
2022-11-30T13:15:18.555Z,41.40
2022-11-30T13:17:45.071Z,38.43
2022-11-30T13:20:34.910Z,41.43
2022-11-30T13:23:03.303Z,39.37
2022-11-30T13:28:38.062Z,39.93
2022-11-30T13:31:06.470Z,41.13
2022-11-30T13:33:51.914Z,38.53
2022-11-30T13:36:22.292Z,39.67
2022-11-30T13:39:07.875Z,39.97
2022-11-30T13:41:35.073Z,37.07
2022-11-30T13:44:01.829Z,38.57
2022-11-30T13:46:28.758Z,34.33
2022-11-30T13:49:14.091Z,30.17
2022-11-30T13:51:42.095Z,36.37
2022-11-30T13:54:28.385Z,34.43
2022-11-30T13:56:54.990Z,30.77
2022-11-30T13:59:23.588Z,32.80
2022-11-30T14:01:53.337Z,31.97
2022-11-30T14:04:19.791Z,29.87
2022-11-30T14:06:49.898Z,28.33
2022-11-30T14:09:36.724Z,27.97
2022-11-30T14:12:22.022Z,28.40
2022-11-30T14:14:48.589Z,30.53
2022-11-30T14:17:16.956Z,28.80
2022-11-30T14:19:44.254Z,33.67
2022-11-30T14:22:11.111Z,29.20
2022-11-30T14:24:37.624Z,34.10
2022-11-30T14:27:04.326Z,35.73
2022-11-30T14:29:35.494Z,37.50
2022-11-30T14:32:08.029Z,36.70
2022-11-30T14:34:39.307Z,37.73
2022-11-30T14:37:26.136Z,35.40
2022-11-30T14:39:58.707Z,35.40
2022-11-30T14:42:26.282Z,36.43
2022-11-30T14:44:53.405Z,38.90
2022-11-30T14:47:32.662Z,31.93
2022-11-30T14:50:02.189Z,36.53
2022-11-30T14:52:38.149Z,39.07
2022-11-30T14:55:31.159Z,40.03
2022-11-30T14:58:07.626Z,36.23
2022-11-30T15:00:41.023Z,39.60
2022-11-30T15:03:16.353Z,37.17
2022-11-30T15:05:43.208Z,44.83
2022-11-30T15:08:11.330Z,38.80
2022-11-30T15:10:37.891Z,41.47
2022-11-30T15:13:04.687Z,40.97
2022-11-30T15:15:31.533Z,38.47
2022-11-30T15:17:58.975Z,41.50
2022-11-30T15:20:36.676Z,38.80
2022-11-30T15:23:03.213Z,42.77
2022-11-30T15:25:48.956Z,48.63
2022-11-30T15:28:17.608Z,47.63
2022-11-30T15:30:44.331Z,42.83
2022-11-30T15:33:16.089Z,41.93
2022-11-30T15:36:13.778Z,39.43
2022-11-30T15:38:31.472Z,38.50
2022-11-30T15:41:05.307Z,42.70
2022-11-30T15:43:36.541Z,43.97
2022-11-30T15:46:03.197Z,47.53
2022-11-30T15:48:29.721Z,36.70
2022-11-30T15:50:56.218Z,41.67
2022-11-30T15:53:23.879Z,46.13
2022-11-30T15:55:51.121Z,40.03
2022-11-30T15:58:24.430Z,42.17
2022-11-30T16:01:25.879Z,45.83
2022-11-30T16:03:55.630Z,39.40
2022-11-30T16:06:22.629Z,41.57
2022-11-30T16:08:49.207Z,45.47
2022-11-30T16:11:16.020Z,42.00
2022-11-30T16:13:42.510Z,43.87
2022-11-30T16:16:12.516Z,49.50
2022-11-30T16:18:39.026Z,43.20
2022-11-30T16:21:05.762Z,43.73
2022-11-30T16:23:35.311Z,46.43
2022-11-30T16:26:01.786Z,42.33
2022-11-30T16:28:28.314Z,53.07
2022-11-30T16:30:54.894Z,42.87
2022-11-30T16:33:25.704Z,57.97
2022-11-30T16:35:58.670Z,49.67
2022-11-30T16:38:25.111Z,48.43
2022-11-30T16:40:54.126Z,50.63
2022-11-30T16:43:20.676Z,51.20
2022-11-30T16:45:48.143Z,41.87
2022-11-30T16:48:14.598Z,49.23
2022-11-30T16:50:41.524Z,49.03
2022-11-30T16:53:10.019Z,46.40
2022-11-30T16:55:37.973Z,52.00
2022-11-30T16:58:04.669Z,48.37
2022-11-30T17:00:31.416Z,53.60
2022-11-30T17:03:08.549Z,43.93
2022-11-30T17:05:35.536Z,45.43
2022-11-30T17:08:02.155Z,53.67
2022-11-30T17:10:28.750Z,51.03
2022-11-30T17:12:55.197Z,50.87
2022-11-30T17:15:22.396Z,51.47
2022-11-30T17:17:48.974Z,52.67
2022-11-30T17:20:15.733Z,44.10
2022-11-30T17:22:42.246Z,52.30
2022-11-30T17:25:09.721Z,47.90
2022-11-30T17:27:36.145Z,52.03
2022-11-30T17:30:02.838Z,48.07
2022-11-30T17:32:29.306Z,46.47
2022-11-30T17:34:55.829Z,47.93
2022-11-30T17:37:23.211Z,55.07
2022-11-30T17:39:49.952Z,48.07
2022-11-30T17:42:16.428Z,52.57
2022-11-30T17:44:42.972Z,49.70
2022-11-30T17:47:09.519Z,51.27
2022-11-30T17:49:36.086Z,51.10
2022-11-30T17:52:02.562Z,54.83
2022-11-30T17:54:29.030Z,53.17
2022-11-30T17:56:56.658Z,46.97
2022-11-30T17:59:23.076Z,49.73
2022-11-30T18:01:49.814Z,54.20
2022-11-30T18:04:16.454Z,51.20
2022-11-30T18:06:42.903Z,53.73
2022-11-30T18:09:09.367Z,45.70
2022-11-30T18:11:35.965Z,49.43
2022-11-30T18:14:03.984Z,47.83
2022-11-30T18:16:31.404Z,50.90
2022-11-30T18:18:58.690Z,48.57
2022-11-30T18:21:25.956Z,47.00
2022-11-30T18:23:53.238Z,46.43
2022-11-30T18:26:20.717Z,52.10
2022-11-30T18:28:47.352Z,49.47
2022-11-30T18:31:13.947Z,49.97
2022-11-30T18:33:40.569Z,49.37
2022-11-30T18:36:07.870Z,47.00
2022-11-30T18:38:38.125Z,45.30
2022-11-30T18:41:05.440Z,48.73
2022-11-30T18:43:33.572Z,50.10
2022-11-30T18:46:04.186Z,41.57
2022-11-30T18:48:30.988Z,45.60
2022-11-30T18:50:57.492Z,42.20
2022-11-30T18:53:24.781Z,42.90
2022-11-30T18:55:51.558Z,42.90
2022-11-30T18:58:18.178Z,39.43
2022-11-30T19:00:47.852Z,40.57
2022-11-30T19:03:14.469Z,44.83
2022-11-30T19:05:44.221Z,42.30
2022-11-30T19:08:13.792Z,40.30
2022-11-30T19:10:40.749Z,46.27
2022-11-30T19:13:08.548Z,50.10
2022-11-30T19:15:39.061Z,52.30
2022-11-30T19:18:05.886Z,47.80
2022-11-30T19:20:37.146Z,48.73
2022-11-30T19:23:03.667Z,46.23
2022-11-30T19:25:30.250Z,47.43
2022-11-30T19:27:56.851Z,41.83
2022-11-30T19:30:23.504Z,48.33
2022-11-30T19:32:50.161Z,44.53
2022-11-30T19:35:16.826Z,49.20
2022-11-30T19:37:43.325Z,45.90
2022-11-30T19:40:10.274Z,44.70
2022-11-30T19:42:37.041Z,44.33
2022-11-30T19:45:03.704Z,40.63
2022-11-30T19:47:30.640Z,38.80
2022-11-30T19:50:01.381Z,36.70
2022-11-30T19:52:27.906Z,38.93
2022-11-30T19:54:54.500Z,38.57
2022-11-30T19:57:21.108Z,36.60
2022-11-30T19:59:47.644Z,41.30
2022-11-30T20:02:14.301Z,35.83
2022-11-30T20:04:40.831Z,41.03
2022-11-30T20:07:07.492Z,37.03
2022-11-30T20:09:33.991Z,34.77
2022-11-30T20:12:00.461Z,38.10
2022-11-30T20:14:27.390Z,35.77
2022-11-30T20:16:54.130Z,41.10
2022-11-30T20:19:20.684Z,38.17
2022-11-30T20:21:48.449Z,42.87
2022-11-30T20:24:15.717Z,37.63
2022-11-30T20:26:42.854Z,44.03
2022-11-30T20:29:13.813Z,44.87
2022-11-30T20:31:40.581Z,44.17
2022-11-30T20:34:08.359Z,34.57
2022-11-30T20:36:35.072Z,35.00
2022-11-30T20:39:02.976Z,37.83
2022-11-30T20:41:29.499Z,38.03
2022-11-30T20:43:56.045Z,39.13
2022-11-30T20:46:23.560Z,37.60
2022-11-30T20:48:50.576Z,37.63
2022-11-30T20:51:33.869Z,41.17
2022-11-30T20:54:01.374Z,39.40
2022-11-30T20:56:27.973Z,35.00
2022-11-30T20:58:54.650Z,38.33
2022-11-30T21:01:21.544Z,38.90
2022-11-30T21:03:48.548Z,37.00
2022-11-30T21:06:16.317Z,34.47
2022-11-30T21:08:43.041Z,38.50
2022-11-30T21:11:11.412Z,38.53
2022-11-30T21:13:38.129Z,38.13
2022-11-30T21:16:07.288Z,39.70
2022-11-30T21:18:34.709Z,36.23
2022-11-30T21:21:02.178Z,36.17
2022-11-30T21:23:28.754Z,33.63
2022-11-30T21:25:55.483Z,41.93
2022-11-30T21:28:22.254Z,36.67
2022-11-30T21:30:48.849Z,38.83
2022-11-30T21:33:15.357Z,41.50
2022-11-30T21:35:41.803Z,45.23
2022-11-30T21:38:08.256Z,34.57
2022-11-30T21:40:34.734Z,33.60
2022-11-30T21:43:01.272Z,35.37
2022-11-30T21:45:27.827Z,39.60
2022-11-30T21:47:54.349Z,41.03
2022-11-30T21:50:25.784Z,35.60
2022-11-30T21:52:53.676Z,37.17
2022-11-30T21:55:20.505Z,39.20
2022-11-30T21:57:46.958Z,38.30
2022-11-30T22:00:14.525Z,36.93
2022-11-30T22:02:41.143Z,40.30
2022-11-30T22:05:07.873Z,37.93
2022-11-30T22:07:34.449Z,41.47
2022-11-30T22:10:00.907Z,38.40
2022-11-30T22:12:27.367Z,40.47
2022-11-30T22:14:53.903Z,42.93
2022-11-30T22:17:20.518Z,44.63
2022-11-30T22:19:47.392Z,45.20
2022-11-30T22:22:14.208Z,44.77
2022-11-30T22:24:40.673Z,46.93
2022-11-30T22:27:07.244Z,45.83
2022-11-30T22:29:33.768Z,47.83
2022-11-30T22:32:00.297Z,48.67
2022-11-30T22:34:26.849Z,44.97
2022-11-30T22:36:53.309Z,40.33
2022-11-30T22:39:20.201Z,40.43
2022-11-30T22:41:49.927Z,34.63
2022-11-30T22:44:20.960Z,35.87
2022-11-30T22:46:47.635Z,31.63
2022-11-30T22:49:19.966Z,35.83
2022-11-30T22:51:47.569Z,32.77
2022-11-30T22:54:14.059Z,31.13
2022-11-30T22:56:41.546Z,33.17
2022-11-30T22:59:10.229Z,28.77
2022-11-30T23:01:37.789Z,32.83
2022-11-30T23:04:09.254Z,31.53
2022-11-30T23:06:36.115Z,32.73
2022-11-30T23:09:03.154Z,27.77
2022-11-30T23:11:29.700Z,34.20
2022-11-30T23:13:56.217Z,26.67
2022-11-30T23:16:22.785Z,31.80
2022-11-30T23:18:50.636Z,27.60
2022-11-30T23:21:18.350Z,27.17
2022-11-30T23:23:44.831Z,30.20
2022-11-30T23:26:12.193Z,25.53
2022-11-30T23:28:41.222Z,24.40
2022-11-30T23:31:08.745Z,29.00
2022-11-30T23:33:35.345Z,25.40
2022-11-30T23:36:01.771Z,28.03
2022-11-30T23:38:28.328Z,27.00
2022-11-30T23:40:54.875Z,27.13
2022-11-30T23:43:21.390Z,27.53
2022-11-30T23:45:47.869Z,25.27
2022-11-30T23:48:14.340Z,24.93
2022-11-30T23:50:40.927Z,24.70
2022-11-30T23:53:07.440Z,27.77
2022-11-30T23:55:34.672Z,24.67
2022-11-30T23:58:01.132Z,28.40
